createdAt,value
2019-03-18T00:00:15.078Z,97592.73
2019-03-18T00:02:43.637Z,97595.41
2019-03-18T00:05:12.381Z,97592.72
2019-03-18T00:07:40.866Z,97588.97
2019-03-18T00:10:09.588Z,97579.38
2019-03-18T00:12:38.088Z,97583.85
2019-03-18T00:15:08.699Z,97582.66
2019-03-18T00:17:37.217Z,97581.84
2019-03-18T00:20:08.060Z,97598.86
2019-03-18T00:22:36.567Z,97609.89
2019-03-18T00:25:07.176Z,97622.84
2019-03-18T00:27:35.655Z,97631.41
2019-03-18T00:30:06.209Z,97647.59
2019-03-18T00:32:34.680Z,97671.00
2019-03-18T00:35:03.417Z,97693.36
2019-03-18T00:37:31.962Z,97705.78
2019-03-18T00:40:00.471Z,97709.88
2019-03-18T00:42:28.939Z,97714.45
2019-03-18T00:44:57.434Z,97711.50
2019-03-18T00:47:25.918Z,97720.78
2019-03-18T00:49:54.428Z,97729.70
2019-03-18T00:52:22.906Z,97729.77
2019-03-18T00:54:51.387Z,97736.59
2019-03-18T00:57:19.938Z,97742.63
2019-03-18T00:59:48.404Z,97753.25
2019-03-18T01:02:16.901Z,97752.66
2019-03-18T01:04:45.402Z,97758.23
2019-03-18T01:07:13.858Z,97763.53
2019-03-18T01:09:42.324Z,97771.83
2019-03-18T01:12:10.796Z,97776.20
2019-03-18T01:14:39.272Z,97779.23
2019-03-18T01:17:07.794Z,97792.72
2019-03-18T01:19:36.262Z,97786.35
2019-03-18T01:22:04.721Z,97796.98
2019-03-18T01:24:33.217Z,97797.14
2019-03-18T01:27:01.696Z,97794.61
2019-03-18T01:29:30.151Z,97803.52
2019-03-18T01:31:58.631Z,97795.86
2019-03-18T01:34:27.113Z,97795.34
2019-03-18T01:36:55.617Z,97796.30
2019-03-18T01:39:24.154Z,97799.94
2019-03-18T01:41:52.648Z,97809.40
2019-03-18T01:44:21.111Z,97810.65
2019-03-18T01:46:49.601Z,97809.20
2019-03-18T01:49:18.065Z,97816.45
2019-03-18T01:51:46.562Z,97818.07
2019-03-18T01:54:15.027Z,97809.94
2019-03-18T01:56:43.657Z,97819.75
2019-03-18T01:59:12.123Z,97822.05
2019-03-18T02:01:40.594Z,97821.52
2019-03-18T02:04:09.085Z,97826.53
2019-03-18T02:06:37.584Z,97827.06
2019-03-18T02:09:07.094Z,97830.66
2019-03-18T02:11:35.567Z,97838.69
2019-03-18T02:14:04.250Z,97838.28
2019-03-18T02:16:32.720Z,97840.48
2019-03-18T02:19:01.290Z,97844.39
2019-03-18T02:21:29.825Z,97844.37
2019-03-18T02:23:59.300Z,97855.27
2019-03-18T02:26:27.828Z,97856.31
2019-03-18T02:28:56.328Z,97866.77
2019-03-18T02:31:24.810Z,97878.12
2019-03-18T02:33:53.309Z,97881.95
2019-03-18T02:36:21.787Z,97883.67
2019-03-18T02:38:50.264Z,97882.78
2019-03-18T02:41:18.765Z,97887.25
2019-03-18T02:43:47.236Z,97894.05
2019-03-18T02:46:15.706Z,97897.86
2019-03-18T02:48:44.166Z,97900.05
2019-03-18T02:51:12.664Z,97899.36
2019-03-18T02:53:41.126Z,97898.52
2019-03-18T02:56:09.606Z,97902.53
2019-03-18T02:58:38.110Z,97902.08
2019-03-18T03:01:06.571Z,97898.98
2019-03-18T03:03:36.938Z,97902.58
2019-03-18T03:06:05.338Z,97905.97
2019-03-18T03:08:33.815Z,97911.84
2019-03-18T03:11:02.282Z,97906.55
2019-03-18T03:13:30.779Z,97897.08
2019-03-18T03:15:59.262Z,97893.03
2019-03-18T03:18:27.752Z,97892.20
2019-03-18T03:20:56.209Z,97896.17
2019-03-18T03:23:24.682Z,97897.36
2019-03-18T03:25:53.184Z,97904.14
2019-03-18T03:28:21.671Z,97902.56
2019-03-18T03:30:50.176Z,97908.21
2019-03-18T03:33:18.614Z,97902.99
2019-03-18T03:35:47.113Z,97897.65
2019-03-18T03:38:15.576Z,97890.61
2019-03-18T03:40:44.056Z,97889.64
2019-03-18T03:43:12.528Z,97894.47
2019-03-18T03:45:41.026Z,97877.25
2019-03-18T03:48:09.494Z,97869.45
2019-03-18T03:50:37.996Z,97864.20
2019-03-18T03:53:06.496Z,97868.52
2019-03-18T03:55:35.017Z,97883.91
2019-03-18T03:58:03.734Z,97885.17
2019-03-18T04:00:32.205Z,97889.05
2019-03-18T04:03:00.693Z,97888.55
2019-03-18T04:05:29.164Z,97890.42
2019-03-18T04:07:57.658Z,97897.01
2019-03-18T04:10:26.209Z,97901.53
2019-03-18T04:12:54.677Z,97907.38
2019-03-18T04:15:23.178Z,97905.73
2019-03-18T04:17:51.647Z,97906.46
2019-03-18T04:20:20.151Z,97894.73
2019-03-18T04:22:48.623Z,97899.56
2019-03-18T04:25:17.109Z,97905.73
2019-03-18T04:27:45.685Z,97911.03
2019-03-18T04:30:15.557Z,97907.06
2019-03-18T04:32:43.990Z,97920.81
2019-03-18T04:35:12.560Z,97922.94
2019-03-18T04:37:41.110Z,97937.25
2019-03-18T04:40:10.883Z,97941.35
2019-03-18T04:42:39.353Z,97941.67
2019-03-18T04:45:09.175Z,97955.48
2019-03-18T04:47:37.815Z,97951.59
2019-03-18T04:50:08.063Z,97937.94
2019-03-18T04:52:36.544Z,97940.83
2019-03-18T04:55:07.002Z,97949.14
2019-03-18T04:57:35.586Z,97945.26
2019-03-18T05:00:08.280Z,97956.98
2019-03-18T05:02:36.859Z,97967.92
2019-03-18T05:05:05.765Z,97975.48
2019-03-18T05:07:34.232Z,97974.50
2019-03-18T05:10:02.806Z,97974.82
2019-03-18T05:12:31.308Z,97972.75
2019-03-18T05:14:59.780Z,97976.77
2019-03-18T05:17:28.284Z,97984.80
2019-03-18T05:19:56.757Z,97990.69
2019-03-18T05:22:25.237Z,97988.67
2019-03-18T05:24:53.756Z,97993.80
2019-03-18T05:27:22.262Z,98002.33
2019-03-18T05:29:50.743Z,98000.96
2019-03-18T05:32:19.198Z,98004.94
2019-03-18T05:34:47.686Z,98010.52
2019-03-18T05:37:16.195Z,98006.85
2019-03-18T05:39:44.684Z,97991.75
2019-03-18T05:42:13.162Z,98002.44
2019-03-18T05:44:41.660Z,97996.67
2019-03-18T05:47:10.127Z,97998.39
2019-03-18T05:49:38.596Z,98001.26
2019-03-18T05:52:07.098Z,98011.32
2019-03-18T05:54:35.581Z,98020.39
2019-03-18T05:57:04.149Z,98031.81
2019-03-18T05:59:32.616Z,98024.38
2019-03-18T06:02:01.094Z,98022.76
2019-03-18T06:04:29.592Z,98033.48
2019-03-18T06:06:58.065Z,98024.71
2019-03-18T06:09:26.544Z,98015.14
2019-03-18T06:11:55.026Z,98008.73
2019-03-18T06:14:23.507Z,98006.83
2019-03-18T06:16:52.059Z,98008.84
2019-03-18T06:19:20.599Z,98021.38
2019-03-18T06:21:49.099Z,98014.30
2019-03-18T06:24:17.583Z,97998.63
2019-03-18T06:26:46.047Z,98001.38
2019-03-18T06:29:14.522Z,98010.38
2019-03-18T06:31:42.992Z,98019.20
2019-03-18T06:34:11.507Z,98030.34
2019-03-18T06:36:39.974Z,98037.17
2019-03-18T06:39:08.475Z,98032.78
2019-03-18T06:41:36.967Z,98036.89
2019-03-18T06:44:05.445Z,98038.52
2019-03-18T06:46:33.926Z,98040.20
2019-03-18T06:49:02.431Z,98031.12
2019-03-18T06:51:30.901Z,98026.30
2019-03-18T06:53:59.398Z,98047.91
2019-03-18T06:56:27.866Z,98046.58
2019-03-18T06:58:56.425Z,98046.31
2019-03-18T07:01:24.912Z,98043.67
2019-03-18T07:03:53.400Z,98051.55
2019-03-18T07:06:21.901Z,98052.30
2019-03-18T07:08:50.372Z,98050.16
2019-03-18T07:11:18.886Z,98053.39
2019-03-18T07:13:47.356Z,98046.31
2019-03-18T07:16:16.737Z,98042.56
2019-03-18T07:18:45.284Z,98045.09
2019-03-18T07:21:14.887Z,98052.88
2019-03-18T07:23:43.411Z,98050.22
2019-03-18T07:26:11.898Z,98060.93
2019-03-18T07:28:40.434Z,98070.30
2019-03-18T07:31:08.918Z,98070.94
2019-03-18T07:33:37.421Z,98078.46
2019-03-18T07:36:05.916Z,98091.44
2019-03-18T07:38:34.388Z,98080.22
2019-03-18T07:41:02.867Z,98064.05
2019-03-18T07:43:31.329Z,98058.98
2019-03-18T07:45:59.828Z,98061.17
2019-03-18T07:48:31.647Z,98070.89
2019-03-18T07:50:59.552Z,98082.07
2019-03-18T07:53:28.025Z,98088.23
2019-03-18T07:55:56.512Z,98089.22
2019-03-18T07:58:24.993Z,98097.10
2019-03-18T08:00:53.608Z,98104.00
2019-03-18T08:03:22.241Z,98107.22
2019-03-18T08:05:50.734Z,98105.41
2019-03-18T08:08:19.282Z,98098.48
2019-03-18T08:10:47.722Z,98104.34
2019-03-18T08:13:16.186Z,98101.05
2019-03-18T08:15:44.687Z,98099.91
2019-03-18T08:18:13.229Z,98101.80
2019-03-18T08:20:41.690Z,98097.17
2019-03-18T08:23:10.162Z,98097.42
2019-03-18T08:25:38.660Z,98097.67
2019-03-18T08:28:07.158Z,98098.56
2019-03-18T08:30:35.641Z,98102.26
2019-03-18T08:33:04.144Z,98103.23
2019-03-18T08:35:32.614Z,98099.17
2019-03-18T08:38:01.096Z,98082.95
2019-03-18T08:40:29.601Z,98077.14
2019-03-18T08:42:58.063Z,98071.52
2019-03-18T08:45:26.533Z,98070.94
2019-03-18T08:47:55.027Z,98071.21
2019-03-18T08:50:23.496Z,98077.80
2019-03-18T08:52:52.007Z,98078.89
2019-03-18T08:55:20.458Z,98069.11
2019-03-18T08:57:50.059Z,98076.33
2019-03-18T09:00:18.903Z,98080.20
2019-03-18T09:02:47.372Z,98093.27
2019-03-18T09:05:15.920Z,98095.45
2019-03-18T09:07:44.403Z,98101.07
2019-03-18T09:10:14.056Z,98096.05
2019-03-18T09:12:42.601Z,98095.87
2019-03-18T09:15:12.011Z,98101.17
2019-03-18T09:17:40.487Z,98118.18
2019-03-18T09:20:14.052Z,98124.27
2019-03-18T09:22:42.570Z,98136.48
2019-03-18T09:25:11.693Z,98136.81
2019-03-18T09:27:40.230Z,98138.75
2019-03-18T09:30:19.492Z,98152.17
2019-03-18T09:32:48.030Z,98156.48
2019-03-18T09:35:16.550Z,98133.70
2019-03-18T09:37:45.021Z,98146.15
2019-03-18T09:40:17.801Z,98150.48
2019-03-18T09:42:46.260Z,98149.83
2019-03-18T09:45:15.956Z,98148.59
2019-03-18T09:47:44.433Z,98144.23
2019-03-18T09:50:13.472Z,98149.16
2019-03-18T09:52:41.939Z,98154.04
2019-03-18T09:55:10.742Z,98150.97
2019-03-18T09:57:39.245Z,98148.30
2019-03-18T10:00:12.768Z,98133.77
2019-03-18T10:02:41.417Z,98129.77
2019-03-18T10:05:09.965Z,98131.52
2019-03-18T10:07:38.490Z,98134.30
2019-03-18T10:10:10.002Z,98133.05
2019-03-18T10:12:38.465Z,98128.51
2019-03-18T10:15:10.273Z,98133.21
2019-03-18T10:17:38.750Z,98134.75
2019-03-18T10:20:08.796Z,98121.60
2019-03-18T10:22:37.306Z,98133.50
2019-03-18T10:25:07.435Z,98132.78
2019-03-18T10:27:37.764Z,98134.67
2019-03-18T10:30:11.323Z,98134.09
2019-03-18T10:32:39.856Z,98143.94
2019-03-18T10:35:09.124Z,98145.61
2019-03-18T10:37:37.661Z,98141.25
2019-03-18T10:40:10.051Z,98142.94
2019-03-18T10:42:38.587Z,98140.44
2019-03-18T10:45:12.091Z,98127.57
2019-03-18T10:47:40.633Z,98129.98
2019-03-18T10:50:17.043Z,98130.28
2019-03-18T10:52:45.656Z,98139.77
2019-03-18T10:55:14.356Z,98147.84
2019-03-18T10:57:42.812Z,98154.76
2019-03-18T11:00:16.715Z,98164.97
2019-03-18T11:02:45.700Z,98174.70
2019-03-18T11:05:15.043Z,98174.56
2019-03-18T11:07:43.703Z,98168.30
2019-03-18T11:10:14.513Z,98173.64
2019-03-18T11:12:43.235Z,98171.57
2019-03-18T11:15:14.052Z,98179.52
2019-03-18T11:17:42.601Z,98186.34
2019-03-18T11:20:13.044Z,98180.63
2019-03-18T11:22:41.658Z,98163.31
2019-03-18T11:25:12.272Z,98164.83
2019-03-18T11:27:40.906Z,98179.41
2019-03-18T11:30:12.421Z,98204.13
2019-03-18T11:32:40.903Z,98195.89
2019-03-18T11:35:09.657Z,98192.02
2019-03-18T11:37:38.197Z,98191.31
2019-03-18T11:40:09.746Z,98196.64
2019-03-18T11:42:38.316Z,98197.22
2019-03-18T11:45:12.118Z,98200.79
2019-03-18T11:47:40.576Z,98195.28
2019-03-18T11:50:14.190Z,98193.41
2019-03-18T11:52:42.740Z,98194.33
2019-03-18T11:55:14.287Z,98198.03
2019-03-18T11:57:42.834Z,98197.97
2019-03-18T12:00:14.157Z,98195.41
2019-03-18T12:02:42.660Z,98200.56
2019-03-18T12:05:14.102Z,98207.65
2019-03-18T12:07:42.628Z,98210.86
2019-03-18T12:10:18.210Z,98204.66
2019-03-18T12:12:46.826Z,98196.31
2019-03-18T12:15:16.872Z,98206.83
2019-03-18T12:17:45.540Z,98204.98
2019-03-18T12:20:24.216Z,98198.16
2019-03-18T12:22:45.546Z,98200.75
2019-03-18T12:25:14.408Z,98205.81
2019-03-18T12:27:43.022Z,98198.03
2019-03-18T12:30:21.778Z,98206.41
2019-03-18T12:32:50.283Z,98211.67
2019-03-18T12:35:18.961Z,98212.38
2019-03-18T12:37:47.515Z,98204.45
2019-03-18T12:40:17.095Z,98205.23
2019-03-18T12:42:46.059Z,98208.09
2019-03-18T12:45:18.752Z,98207.63
2019-03-18T12:47:47.492Z,98211.08
2019-03-18T12:50:39.105Z,98196.09
2019-03-18T12:52:55.981Z,98201.73
2019-03-18T12:55:24.516Z,98201.13
2019-03-18T12:57:52.989Z,98197.80
2019-03-18T13:00:27.280Z,98205.32
2019-03-18T13:02:55.903Z,98209.50
2019-03-18T13:05:24.407Z,98208.92
2019-03-18T13:07:52.883Z,98210.06
2019-03-18T13:10:22.190Z,98203.55
2019-03-18T13:12:50.943Z,98204.99
2019-03-18T13:15:20.262Z,98215.83
2019-03-18T13:17:48.825Z,98214.88
2019-03-18T13:20:21.823Z,98197.05
2019-03-18T13:22:53.573Z,98205.19
2019-03-18T13:25:20.620Z,98202.03
2019-03-18T13:27:49.100Z,98198.03
2019-03-18T13:30:21.662Z,98190.14
2019-03-18T13:32:50.288Z,98200.73
2019-03-18T13:35:18.767Z,98200.31
2019-03-18T13:37:47.334Z,98203.05
2019-03-18T13:40:16.933Z,98205.16
2019-03-18T13:42:45.484Z,98198.24
2019-03-18T13:45:15.731Z,98188.67
2019-03-18T13:47:44.350Z,98197.28
2019-03-18T13:50:15.068Z,98191.17
2019-03-18T13:52:43.884Z,98188.84
2019-03-18T13:55:12.702Z,98198.97
2019-03-18T13:57:41.264Z,98189.72
2019-03-18T14:00:18.432Z,98185.25
2019-03-18T14:02:46.917Z,98185.79
2019-03-18T14:05:15.563Z,98197.98
2019-03-18T14:07:44.320Z,98213.16
2019-03-18T14:10:20.985Z,98201.18
2019-03-18T14:12:49.610Z,98204.55
2019-03-18T14:15:25.494Z,98209.27
2019-03-18T14:17:54.125Z,98211.36
2019-03-18T14:20:24.897Z,98219.88
2019-03-18T14:22:53.355Z,98220.72
2019-03-18T14:25:21.910Z,98218.26
2019-03-18T14:27:50.384Z,98223.80
2019-03-18T14:30:20.035Z,98225.76
2019-03-18T14:32:50.190Z,98217.86
2019-03-18T14:35:21.261Z,98213.82
2019-03-18T14:37:49.910Z,98201.77
2019-03-18T14:40:23.295Z,98199.55
2019-03-18T14:42:51.836Z,98213.73
2019-03-18T14:45:21.545Z,98215.74
2019-03-18T14:47:50.031Z,98211.55
2019-03-18T14:50:19.740Z,98228.10
2019-03-18T14:52:48.388Z,98238.61
2019-03-18T14:55:19.025Z,98236.28
2019-03-18T14:57:47.759Z,98240.48
2019-03-18T15:00:18.910Z,98244.09
2019-03-18T15:02:47.468Z,98249.16
2019-03-18T15:05:17.520Z,98252.34
2019-03-18T15:07:48.045Z,98260.20
2019-03-18T15:10:20.002Z,98258.58
2019-03-18T15:12:48.492Z,98258.34
2019-03-18T15:15:18.610Z,98266.13
2019-03-18T15:17:47.063Z,98266.25
2019-03-18T15:20:20.152Z,98269.49
2019-03-18T15:22:48.657Z,98262.59
2019-03-18T15:25:19.783Z,98270.84
2019-03-18T15:27:48.292Z,98280.46
2019-03-18T15:30:18.678Z,98285.47
2019-03-18T15:32:47.693Z,98292.83
2019-03-18T15:35:17.515Z,98298.73
2019-03-18T15:37:46.054Z,98302.00
2019-03-18T15:40:17.130Z,98300.59
2019-03-18T15:42:45.596Z,98310.03
2019-03-18T15:45:18.616Z,98314.84
2019-03-18T15:47:47.153Z,98312.27
2019-03-18T15:50:20.290Z,98321.58
2019-03-18T15:52:50.369Z,98327.07
2019-03-18T15:55:18.873Z,98331.48
2019-03-18T15:57:47.420Z,98335.39
2019-03-18T16:00:21.603Z,98343.25
2019-03-18T16:02:50.085Z,98346.86
2019-03-18T16:05:18.636Z,98351.89
2019-03-18T16:07:47.125Z,98351.19
2019-03-18T16:10:19.575Z,98351.25
2019-03-18T16:12:48.084Z,98354.47
2019-03-18T16:15:17.444Z,98361.27
2019-03-18T16:17:46.061Z,98359.55
2019-03-18T16:20:19.175Z,98364.54
2019-03-18T16:22:47.676Z,98368.05
2019-03-18T16:25:16.220Z,98359.15
2019-03-18T16:27:44.870Z,98363.06
2019-03-18T16:30:15.654Z,98372.25
2019-03-18T16:32:44.231Z,98373.41
2019-03-18T16:35:15.865Z,98372.54
2019-03-18T16:37:44.619Z,98365.17
2019-03-18T16:40:14.966Z,98368.02
2019-03-18T16:42:43.707Z,98371.08
2019-03-18T16:45:14.258Z,98374.52
2019-03-18T16:47:43.109Z,98386.33
2019-03-18T16:50:16.422Z,98380.57
2019-03-18T16:52:44.985Z,98385.25
2019-03-18T16:55:13.605Z,98380.53
2019-03-18T16:57:42.182Z,98382.20
2019-03-18T17:00:16.917Z,98387.03
2019-03-18T17:02:45.384Z,98384.55
2019-03-18T17:05:14.310Z,98389.17
2019-03-18T17:07:42.862Z,98391.94
2019-03-18T17:10:13.075Z,98396.69
2019-03-18T17:12:41.722Z,98404.44
2019-03-18T17:15:18.110Z,98407.45
2019-03-18T17:17:46.673Z,98415.17
2019-03-18T17:20:16.928Z,98420.63
2019-03-18T17:22:49.295Z,98426.95
2019-03-18T17:25:24.161Z,98421.39
2019-03-18T17:27:55.796Z,98421.19
2019-03-18T17:30:26.694Z,98418.19
2019-03-18T17:32:54.497Z,98415.66
2019-03-18T17:35:23.016Z,98426.58
2019-03-18T17:37:51.476Z,98446.05
2019-03-18T17:40:20.894Z,98449.34
2019-03-18T17:42:49.372Z,98447.88
2019-03-18T17:45:18.942Z,98459.85
2019-03-18T17:47:47.492Z,98461.53
2019-03-18T17:50:29.517Z,98452.84
2019-03-18T17:53:02.894Z,98457.08
2019-03-18T17:55:27.421Z,98464.05
2019-03-18T17:57:55.892Z,98469.47
2019-03-18T18:00:29.150Z,98464.02
2019-03-18T18:02:57.629Z,98474.98
2019-03-18T18:05:26.132Z,98473.39
2019-03-18T18:07:54.599Z,98474.88
2019-03-18T18:10:23.193Z,98486.28
2019-03-18T18:12:51.664Z,98497.39
2019-03-18T18:15:20.155Z,98494.55
2019-03-18T18:17:48.932Z,98498.08
2019-03-18T18:20:17.422Z,98495.38
2019-03-18T18:22:45.955Z,98497.70
2019-03-18T18:25:15.561Z,98506.81
2019-03-18T18:27:44.122Z,98512.11
2019-03-18T18:30:17.397Z,98521.53
2019-03-18T18:32:46.010Z,98524.86
2019-03-18T18:35:14.509Z,98527.47
2019-03-18T18:37:43.053Z,98517.88
2019-03-18T18:40:19.166Z,98514.61
2019-03-18T18:42:47.644Z,98523.42
2019-03-18T18:45:16.266Z,98532.53
2019-03-18T18:47:44.829Z,98536.96
2019-03-18T18:50:13.904Z,98537.10
2019-03-18T18:52:42.365Z,98530.54
2019-03-18T18:55:14.711Z,98536.91
2019-03-18T18:57:43.352Z,98536.02
2019-03-18T19:00:21.815Z,98547.78
2019-03-18T19:02:52.338Z,98545.45
2019-03-18T19:05:20.979Z,98558.84
2019-03-18T19:07:49.455Z,98551.73
2019-03-18T19:10:21.481Z,98559.73
2019-03-18T19:12:50.082Z,98558.17
2019-03-18T19:15:20.964Z,98554.27
2019-03-18T19:17:49.677Z,98552.80
2019-03-18T19:20:18.459Z,98554.84
2019-03-18T19:22:47.076Z,98554.25
2019-03-18T19:25:16.390Z,98557.33
2019-03-18T19:27:45.102Z,98556.30
2019-03-18T19:30:16.208Z,98552.87
2019-03-18T19:32:44.767Z,98558.07
2019-03-18T19:35:13.487Z,98556.92
2019-03-18T19:37:42.049Z,98558.95
2019-03-18T19:40:15.556Z,98566.06
2019-03-18T19:42:44.185Z,98568.10
2019-03-18T19:45:14.711Z,98572.81
2019-03-18T19:47:43.545Z,98574.53
2019-03-18T19:50:26.034Z,98582.02
2019-03-18T19:52:54.532Z,98579.66
2019-03-18T19:55:23.039Z,98590.42
2019-03-18T19:57:51.591Z,98586.68
2019-03-18T20:00:22.875Z,98593.77
2019-03-18T20:02:51.451Z,98599.81
2019-03-18T20:05:19.927Z,98601.34
2019-03-18T20:07:48.415Z,98606.38
2019-03-18T20:10:18.901Z,98602.48
2019-03-18T20:12:47.505Z,98615.17
2019-03-18T20:15:19.872Z,98612.33
2019-03-18T20:17:48.364Z,98614.78
2019-03-18T20:20:24.130Z,98611.97
2019-03-18T20:22:52.624Z,98615.80
2019-03-18T20:25:21.181Z,98619.19
2019-03-18T20:27:49.657Z,98613.80
2019-03-18T20:30:24.052Z,98617.38
2019-03-18T20:32:53.693Z,98614.65
2019-03-18T20:35:23.289Z,98626.50
2019-03-18T20:37:52.504Z,98626.05
2019-03-18T20:40:21.269Z,98629.67
2019-03-18T20:42:49.807Z,98628.16
2019-03-18T20:45:27.661Z,98629.19
2019-03-18T20:47:56.133Z,98627.73
2019-03-18T20:50:25.377Z,98628.59
2019-03-18T20:52:54.015Z,98635.30
2019-03-18T20:55:22.488Z,98637.68
2019-03-18T20:57:50.983Z,98642.30
2019-03-18T21:00:24.857Z,98645.91
2019-03-18T21:02:53.775Z,98644.11
2019-03-18T21:05:24.934Z,98646.88
2019-03-18T21:07:54.854Z,98651.63
2019-03-18T21:10:23.467Z,98651.13
2019-03-18T21:12:51.968Z,98647.30
2019-03-18T21:15:20.614Z,98652.61
2019-03-18T21:17:49.104Z,98651.99
2019-03-18T21:20:18.618Z,98664.33
2019-03-18T21:22:47.092Z,98662.95
2019-03-18T21:25:15.662Z,98664.05
2019-03-18T21:27:44.314Z,98663.02
2019-03-18T21:30:18.511Z,98668.80
2019-03-18T21:32:47.222Z,98659.08
2019-03-18T21:35:15.685Z,98665.89
2019-03-18T21:37:44.161Z,98665.94
2019-03-18T21:40:20.008Z,98671.52
2019-03-18T21:42:48.542Z,98679.12
2019-03-18T21:45:23.280Z,98663.14
2019-03-18T21:47:51.342Z,98665.88
2019-03-18T21:50:19.906Z,98676.56
2019-03-18T21:52:48.477Z,98676.51
2019-03-18T21:55:18.090Z,98678.16
2019-03-18T21:57:46.641Z,98675.94
2019-03-18T22:00:18.978Z,98681.06
2019-03-18T22:02:47.651Z,98688.61
2019-03-18T22:05:16.551Z,98685.42
2019-03-18T22:07:45.026Z,98692.36
2019-03-18T22:10:16.041Z,98699.28
2019-03-18T22:12:44.581Z,98700.00
2019-03-18T22:15:14.392Z,98698.11
2019-03-18T22:17:43.164Z,98701.72
2019-03-18T22:20:16.551Z,98707.15
2019-03-18T22:22:45.093Z,98707.63
2019-03-18T22:25:14.536Z,98710.70
2019-03-18T22:27:43.084Z,98710.09
2019-03-18T22:30:16.179Z,98714.20
2019-03-18T22:32:44.995Z,98713.11
2019-03-18T22:35:15.169Z,98717.02
2019-03-18T22:37:44.136Z,98720.29
2019-03-18T22:40:14.363Z,98723.52
2019-03-18T22:42:42.833Z,98718.78
2019-03-18T22:45:13.158Z,98719.13
2019-03-18T22:47:41.737Z,98713.55
2019-03-18T22:50:12.098Z,98718.69
2019-03-18T22:52:40.600Z,98715.72
2019-03-18T22:55:11.084Z,98715.72
2019-03-18T22:57:39.764Z,98716.22
2019-03-18T23:00:23.514Z,98719.70
2019-03-18T23:02:53.102Z,98722.01
2019-03-18T23:05:21.856Z,98722.58
2019-03-18T23:07:50.416Z,98721.37
2019-03-18T23:10:19.111Z,98725.09
2019-03-18T23:12:47.605Z,98715.33
2019-03-18T23:15:16.172Z,98731.04
2019-03-18T23:17:44.641Z,98735.96
2019-03-18T23:20:13.688Z,98733.19
2019-03-18T23:22:42.170Z,98743.80
2019-03-18T23:25:10.704Z,98746.83
2019-03-18T23:27:39.195Z,98744.23
2019-03-18T23:30:14.904Z,98747.44
2019-03-18T23:32:43.557Z,98750.65
2019-03-18T23:35:14.687Z,98757.61
2019-03-18T23:37:43.192Z,98754.95
2019-03-18T23:40:12.808Z,98760.19
2019-03-18T23:42:41.361Z,98764.56
2019-03-18T23:45:11.080Z,98763.98
2019-03-18T23:47:39.728Z,98762.91
2019-03-18T23:50:11.171Z,98760.17
2019-03-18T23:52:39.709Z,98759.36
2019-03-18T23:55:18.464Z,98763.75
2019-03-18T23:57:39.341Z,98766.19
